Time;durP1;ratioP1;P1;durP2;ratioP2;P2;SDS_P1;SDS_P2;PMS_P1;PMS_P2;Temp;Humidity;BMP_temperature;BMP_pressure;BME280_temperature;BME280_humidity;BME280_pressure;Samples;Min_cycle;Max_cycle;Signal;HPM_P1;HPM_P2
2022/07/17 00:01:48;;;;;;;1.27;1.17;;;17.00;99.90;;;;;;5250296;28;20325;-58
2022/07/17 00:04:19;;;;;;;1.23;1.13;;;16.90;99.90;;;;;;5230324;28;20226;-58
2022/07/17 00:06:54;;;;;;;1.60;1.50;;;16.90;99.90;;;;;;5224041;28;20032;-58
2022/07/17 00:09:31;;;;;;;1.35;1.20;;;16.90;99.90;;;;;;5224453;28;20214;-58
2022/07/17 00:12:08;;;;;;;2.05;1.75;;;16.80;99.90;;;;;;5203371;28;20036;-57
2022/07/17 00:14:40;;;;;;;1.38;1.17;;;16.80;99.90;;;;;;5219390;28;20021;-58
2022/07/17 00:17:14;;;;;;;1.27;1.17;;;16.90;99.90;;;;;;5221387;28;20026;-58
2022/07/17 00:19:48;;;;;;;1.42;1.33;;;16.90;99.90;;;;;;5203953;28;20033;-58
2022/07/17 00:22:20;;;;;;;1.13;1.02;;;16.90;99.90;;;;;;5186766;28;20033;-59
2022/07/17 00:24:54;;;;;;;1.40;1.02;;;16.90;99.90;;;;;;5221035;28;20085;-58
2022/07/17 00:27:28;;;;;;;1.50;1.08;;;16.90;99.90;;;;;;5220872;28;20025;-58
2022/07/17 00:30:00;;;;;;;4.60;1.40;;;16.90;99.90;;;;;;5220416;28;20029;-58
2022/07/17 00:32:35;;;;;;;1.92;1.30;;;16.90;99.90;;;;;;5203057;28;20033;-58
2022/07/17 00:35:10;;;;;;;1.35;1.25;;;16.90;99.90;;;;;;5221390;28;20032;-58
2022/07/17 00:37:46;;;;;;;1.33;1.23;;;16.90;99.90;;;;;;5184708;28;20043;-58
2022/07/17 00:40:23;;;;;;;0.88;0.88;;;16.80;99.90;;;;;;5202054;28;20021;-59
2022/07/17 00:42:56;;;;;;;1.23;1.13;;;16.80;99.90;;;;;;5220433;28;20044;-59
2022/07/17 00:45:33;;;;;;;1.15;1.05;;;16.80;99.90;;;;;;5221199;28;20041;-59
2022/07/17 00:48:12;;;;;;;1.20;1.10;;;16.70;99.90;;;;;;5221980;28;20222;-59
2022/07/17 00:50:43;;;;;;;3.63;1.10;;;16.70;99.90;;;;;;5221230;28;20030;-59
2022/07/17 00:53:16;;;;;;;1.50;1.20;;;16.70;99.90;;;;;;5203117;28;20206;-60
2022/07/17 00:55:52;;;;;;;1.70;1.40;;;16.70;99.90;;;;;;5203061;28;20206;-59
2022/07/17 00:58:25;;;;;;;1.40;1.10;;;16.70;99.90;;;;;;5223172;28;20185;-59
2022/07/17 01:00:56;;;;;;;1.10;1.00;;;16.70;99.90;;;;;;5241061;28;20302;-59
2022/07/17 01:03:28;;;;;;;1.75;1.10;;;16.80;99.90;;;;;;5206846;28;20025;-59
2022/07/17 01:06:02;;;;;;;1.33;1.20;;;16.70;99.90;;;;;;5196748;28;20095;-59
2022/07/17 01:08:34;;;;;;;;;;;16.70;99.90;;;;;;5240950;28;20301;-59
2022/07/17 01:11:08;;;;;;;0.90;0.70;;;16.80;99.90;;;;;;5252679;28;20006;-59
2022/07/17 01:13:39;;;;;;;2.97;0.80;;;16.80;99.90;;;;;;5226586;28;20029;-59
2022/07/17 01:16:11;;;;;;;2.75;1.10;;;16.90;99.90;;;;;;5243172;28;20032;-59
2022/07/17 01:18:42;;;;;;;2.35;1.23;;;16.80;99.90;;;;;;5226600;28;20040;-59
2022/07/17 01:21:16;;;;;;;0.90;0.90;;;16.80;99.90;;;;;;5242648;28;20028;-59
2022/07/17 01:23:48;;;;;;;1.00;1.00;;;16.80;99.90;;;;;;5242818;28;20029;-59
2022/07/17 01:26:19;;;;;;;0.90;0.90;;;16.80;99.90;;;;;;5212653;28;20206;-59
2022/07/17 01:28:53;;;;;;;1.00;0.90;;;16.70;99.90;;;;;;5248678;28;20020;-59
2022/07/17 01:31:26;;;;;;;1.97;1.70;;;16.60;99.90;;;;;;5226916;28;20036;-59
2022/07/17 01:34:02;;;;;;;1.38;1.27;;;16.60;99.90;;;;;;5226133;28;20255;-59
2022/07/17 01:36:34;;;;;;;1.17;1.00;;;16.50;99.90;;;;;;5260953;28;20028;-59
2022/07/17 01:39:06;;;;;;;0.95;0.95;;;16.40;99.90;;;;;;5261305;28;20179;-59
2022/07/17 01:41:39;;;;;;;0.70;0.70;;;16.40;99.90;;;;;;5224400;28;20029;-59
2022/07/17 01:44:10;;;;;;;0.80;0.80;;;16.40;99.90;;;;;;5242246;28;20028;-59
2022/07/17 01:46:44;;;;;;;0.82;0.82;;;16.40;99.90;;;;;;5264108;28;20032;-59
2022/07/17 01:49:17;;;;;;;0.80;0.80;;;16.30;99.90;;;;;;5231526;28;20331;-59
2022/07/17 01:58:34;;;;;;;1.83;0.85;;;16.00;99.90;;;;;;5262656;28;20027;-58
2022/07/17 02:01:07;;;;;;;0.90;0.90;;;15.90;99.90;;;;;;5263213;28;20028;-58
2022/07/17 02:03:41;;;;;;;0.77;0.77;;;15.90;99.90;;;;;;5263534;28;20042;-58
2022/07/17 02:06:13;;;;;;;1.20;1.10;;;15.90;99.90;;;;;;5263132;28;20034;-58
2022/07/17 02:08:44;;;;;;;1.23;1.05;;;15.80;99.90;;;;;;5280780;28;20043;-58
2022/07/17 02:11:18;;;;;;;1.50;1.17;;;15.70;99.90;;;;;;5281461;28;20032;-58
2022/07/17 02:13:49;;;;;;;0.90;0.90;;;15.50;99.90;;;;;;5244868;28;20038;-58
2022/07/17 02:16:21;;;;;;;1.15;1.10;;;15.40;99.90;;;;;;5246839;28;20024;-58
2022/07/17 02:18:54;;;;;;;0.65;0.65;;;15.30;99.90;;;;;;5280750;28;20024;-58
2022/07/17 02:21:28;;;;;;;5.13;1.40;;;15.10;99.90;;;;;;5281348;28;20031;-58
2022/07/17 02:24:04;;;;;;;0.93;0.90;;;15.00;99.90;;;;;;5254410;28;20031;-58
2022/07/17 02:26:38;;;;;;;1.00;0.85;;;15.00;99.90;;;;;;5262174;28;20050;-58
2022/07/17 02:29:12;;;;;;;1.00;1.00;;;14.80;99.90;;;;;;5280454;28;20028;-60
2022/07/17 02:31:48;;;;;;;0.85;0.82;;;14.80;99.90;;;;;;5281017;28;20204;-59
2022/07/17 02:34:22;;;;;;;0.80;0.80;;;14.80;99.90;;;;;;5281323;28;20030;-58
2022/07/17 02:36:55;;;;;;;1.33;1.17;;;14.80;99.90;;;;;;5280503;28;20038;-58
2022/07/17 02:39:29;;;;;;;1.00;1.00;;;14.70;99.90;;;;;;5262623;28;20034;-58
2022/07/17 02:42:03;;;;;;;0.95;0.95;;;14.60;99.90;;;;;;5258664;28;20034;-58
2022/07/17 02:44:34;;;;;;;2.42;0.95;;;14.60;99.90;;;;;;5279516;28;20034;-58
2022/07/17 02:47:05;;;;;;;1.13;1.02;;;14.60;99.90;;;;;;5280304;28;20038;-58
2022/07/17 02:49:38;;;;;;;1.10;1.10;;;14.60;99.90;;;;;;5280410;28;20024;-58
2022/07/17 02:52:10;;;;;;;2.22;1.00;;;14.60;99.90;;;;;;5230729;28;20033;-58
2022/07/17 02:54:44;;;;;;;0.95;0.85;;;14.50;99.90;;;;;;5221315;28;20017;-58
2022/07/17 02:57:18;;;;;;;4.32;0.93;;;14.50;99.90;;;;;;5242501;28;20031;-58
2022/07/17 02:59:49;;;;;;;1.35;1.25;;;14.50;99.90;;;;;;5238774;28;20028;-58
2022/07/17 03:02:23;;;;;;;1.67;0.98;;;14.40;99.90;;;;;;5259523;28;20028;-58
2022/07/17 03:04:57;;;;;;;1.53;1.03;;;14.40;99.90;;;;;;5208721;28;20055;-58
2022/07/17 03:07:29;;;;;;;1.08;1.02;;;14.40;99.90;;;;;;5232169;28;20265;-60
2022/07/17 03:10:05;;;;;;;1.25;1.15;;;14.30;99.90;;;;;;5236919;28;20044;-58
2022/07/17 03:12:37;;;;;;;1.55;1.10;;;14.30;99.90;;;;;;5236312;28;20027;-57
2022/07/17 03:15:11;;;;;;;1.17;1.08;;;14.30;99.90;;;;;;5220026;28;20298;-60
2022/07/17 03:17:42;;;;;;;0.98;0.98;;;14.30;99.90;;;;;;5220980;28;20029;-59
2022/07/17 03:20:14;;;;;;;0.90;0.90;;;14.30;99.90;;;;;;5220364;28;20265;-59
2022/07/17 03:22:47;;;;;;;1.35;1.00;;;14.30;99.90;;;;;;5238436;28;20035;-58
2022/07/17 03:28:51;;;;;;;0.80;0.75;;;14.20;99.90;;;;;;5237819;28;20025;-58
2022/07/17 03:31:22;;;;;;;1.23;1.20;;;14.20;99.90;;;;;;5223842;28;20038;-58
2022/07/17 03:33:55;;;;;;;1.42;1.30;;;14.30;99.90;;;;;;5242795;28;20020;-58
2022/07/17 03:36:29;;;;;;;1.23;1.13;;;14.30;99.90;;;;;;5224368;28;20059;-58
2022/07/17 03:39:04;;;;;;;1.02;1.02;;;14.40;99.90;;;;;;5241728;28;20040;-59
2022/07/17 03:41:35;;;;;;;;;;;14.40;99.90;;;;;;5224183;28;20036;-59
2022/07/17 03:44:12;;;;;;;0.75;0.75;;;14.50;99.90;;;;;;5223187;28;20174;-59
2022/07/17 03:46:43;;;;;;;1.20;1.10;;;14.50;99.90;;;;;;5243222;28;20024;-59
2022/07/17 03:49:14;;;;;;;1.45;1.35;;;14.60;99.90;;;;;;5241174;28;20206;-59
2022/07/17 03:51:48;;;;;;;3.28;1.10;;;14.70;99.90;;;;;;5241955;28;20027;-59
2022/07/17 03:54:19;;;;;;;1.20;1.02;;;14.80;99.90;;;;;;5224713;28;20104;-60
2022/07/17 03:56:51;;;;;;;0.80;0.80;;;14.90;99.90;;;;;;5224752;28;20055;-59
2022/07/17 03:59:23;;;;;;;1.27;0.93;;;15.10;99.90;;;;;;5222284;28;20036;-60
2022/07/17 04:01:54;;;;;;;0.90;0.90;;;15.20;99.90;;;;;;5241868;28;20021;-60
2022/07/17 04:04:25;;;;;;;1.23;1.13;;;15.30;99.90;;;;;;5230175;28;20025;-60
2022/07/17 04:07:01;;;;;;;0.90;0.90;;;15.50;99.90;;;;;;5226471;28;20037;-59
2022/07/17 04:09:35;;;;;;;1.33;0.90;;;15.70;99.90;;;;;;5208346;28;20040;-60
2022/07/17 04:12:06;;;;;;;1.00;1.00;;;15.80;99.90;;;;;;5244575;28;20028;-59
2022/07/17 04:14:38;;;;;;;2.65;0.80;;;16.00;99.90;;;;;;5243723;28;20207;-60
2022/07/17 04:17:11;;;;;;;0.98;0.90;;;16.20;99.90;;;;;;5261783;28;20304;-60
2022/07/17 04:19:42;;;;;;;1.25;0.95;;;16.40;99.90;;;;;;5261847;28;20029;-60
2022/07/17 04:22:15;;;;;;;1.20;1.20;;;16.60;99.90;;;;;;5228138;28;20036;-60
2022/07/17 04:24:49;;;;;;;2.38;1.08;;;16.80;99.90;;;;;;5244744;28;20025;-60
2022/07/17 04:27:25;;;;;;;1.67;0.93;;;16.80;99.90;;;;;;5226652;28;20306;-61
2022/07/17 04:30:00;;;;;;;1.23;1.10;;;17.10;99.90;;;;;;5244668;28;20032;-60
2022/07/17 04:32:38;;;;;;;1.55;1.00;;;17.30;99.90;;;;;;5262313;28;20027;-61
2022/07/17 04:35:15;;;;;;;1.08;0.98;;;17.70;99.90;;;;;;5261492;28;20310;-60
2022/07/17 04:37:51;;;;;;;1.83;1.10;;;17.90;99.90;;;;;;5244811;28;20028;-61
2022/07/17 04:40:24;;;;;;;0.68;0.68;;;18.10;99.90;;;;;;5227369;28;20035;-60
2022/07/17 04:42:58;;;;;;;1.63;1.40;;;18.30;99.90;;;;;;5243603;28;20298;-60
2022/07/17 04:45:30;;;;;;;0.70;0.70;;;18.40;99.90;;;;;;5262181;28;20194;-61
2022/07/17 04:48:04;;;;;;;0.90;0.80;;;18.50;99.90;;;;;;5243709;28;20044;-60
2022/07/17 04:50:38;;;;;;;0.85;0.80;;;18.70;99.90;;;;;;5260930;28;20212;-60
2022/07/17 04:53:14;;;;;;;0.85;0.85;;;18.80;99.90;;;;;;5244012;28;20032;-60
2022/07/17 04:55:45;;;;;;;1.10;1.00;;;18.90;99.90;;;;;;5261674;28;20316;-60
2022/07/17 04:58:18;;;;;;;1.10;1.00;;;19.10;99.90;;;;;;5244124;28;20029;-60
2022/07/17 05:00:52;;;;;;;0.93;0.80;;;19.10;99.90;;;;;;5227639;28;20028;-60
2022/07/17 05:03:28;;;;;;;1.00;1.00;;;19.10;99.90;;;;;;5260843;28;20028;-59
2022/07/17 05:06:03;;;;;;;0.70;0.70;;;19.10;99.90;;;;;;5233486;28;20040;-60
2022/07/17 05:08:39;;;;;;;1.27;0.75;;;19.00;99.90;;;;;;5261602;28;20024;-61
2022/07/17 05:11:10;;;;;;;0.90;0.90;;;19.00;99.90;;;;;;5229658;28;20036;-60
2022/07/17 05:13:42;;;;;;;0.80;0.80;;;19.00;99.90;;;;;;5222192;28;20021;-59
2022/07/17 05:16:13;;;;;;;0.90;0.90;;;19.00;99.90;;;;;;5240979;28;20028;-59
2022/07/17 05:18:47;;;;;;;1.05;0.95;;;19.10;99.90;;;;;;5239321;28;20017;-60
2022/07/17 05:21:18;;;;;;;1.17;1.08;;;19.00;99.90;;;;;;5222013;28;20043;-59
2022/07/17 05:23:49;;;;;;;1.17;0.93;;;19.00;99.90;;;;;;5206088;28;20033;-59
2022/07/17 05:26:21;;;;;;;0.85;0.85;;;19.10;99.90;;;;;;5222368;28;20035;-60
2022/07/17 05:28:52;;;;;;;1.00;0.90;;;19.10;99.90;;;;;;5238878;28;20201;-60
2022/07/17 05:31:24;;;;;;;0.88;0.88;;;19.20;99.90;;;;;;5222444;28;20225;-60
2022/07/17 05:33:55;;;;;;;0.60;0.60;;;19.00;99.90;;;;;;5201191;28;20033;-58
2022/07/17 05:36:28;;;;;;;0.88;0.88;;;19.20;99.90;;;;;;5220356;28;20199;-59
2022/07/17 05:39:00;;;;;;;0.93;0.88;;;19.20;99.90;;;;;;5221389;28;20020;-59
2022/07/17 05:41:31;;;;;;;0.93;0.82;;;19.20;99.90;;;;;;5238539;28;20039;-59
2022/07/17 05:44:05;;;;;;;1.85;0.90;;;19.40;99.90;;;;;;5239959;28;20021;-59
2022/07/17 05:46:37;;;;;;;1.67;0.70;;;19.50;99.90;;;;;;5221882;28;20100;-59
2022/07/17 05:49:08;;;;;;;1.92;0.80;;;19.60;99.90;;;;;;5204358;28;20037;-59
2022/07/17 05:51:42;;;;;;;1.65;0.70;;;19.70;99.90;;;;;;5240629;28;20037;-59
2022/07/17 05:54:16;;;;;;;1.15;1.05;;;20.20;99.90;;;;;;5204485;28;20035;-60
2022/07/17 05:56:50;;;;;;;0.88;0.80;;;20.20;99.90;;;;;;5239509;28;20020;-60
2022/07/17 05:59:26;;;;;;;6.63;0.82;;;20.10;99.90;;;;;;5239930;28;20029;-59
2022/07/17 06:01:57;;;;;;;0.82;0.60;;;20.20;99.90;;;;;;5221051;28;20328;-60
2022/07/17 06:04:28;;;;;;;0.63;0.63;;;20.30;99.90;;;;;;5227829;28;20024;-60
2022/07/17 06:07:00;;;;;;;0.95;0.95;;;20.60;99.90;;;;;;5238551;28;20037;-60
2022/07/17 06:09:32;;;;;;;2.22;0.80;;;20.50;99.90;;;;;;5239142;28;20340;-60
2022/07/17 06:12:04;;;;;;;0.52;0.52;;;20.90;99.90;;;;;;5259572;28;20029;-60
2022/07/17 06:14:35;;;;;;;0.73;0.73;;;20.80;99.90;;;;;;5255623;28;20036;-60
2022/07/17 06:17:06;;;;;;;1.95;0.93;;;20.60;99.90;;;;;;5259158;28;20289;-62
2022/07/17 06:19:37;;;;;;;0.77;0.60;;;20.90;99.90;;;;;;5241970;28;20035;-60
2022/07/17 06:22:09;;;;;;;1.50;0.88;;;21.20;99.90;;;;;;5259266;28;20036;-59
2022/07/17 06:24:42;;;;;;;0.65;0.65;;;20.70;99.90;;;;;;5224689;28;20036;-59
2022/07/17 06:27:13;;;;;;;0.60;0.60;;;21.00;99.90;;;;;;5225844;28;20043;-59
2022/07/17 06:29:46;;;;;;;0.85;0.50;;;21.20;99.90;;;;;;5259548;28;20046;-59
2022/07/17 06:32:19;;;;;;;0.60;0.60;;;21.00;99.90;;;;;;5260191;28;20020;-60
2022/07/17 06:34:53;;;;;;;0.60;0.60;;;21.30;99.90;;;;;;5224558;28;20036;-60
2022/07/17 06:37:27;;;;;;;0.60;0.60;;;22.10;99.90;;;;;;5260586;28;20038;-60
2022/07/17 06:39:59;;;;;;;0.50;0.50;;;23.60;99.90;;;;;;5241888;28;20036;-60
2022/07/17 06:42:33;;;;;;;2.35;0.63;;;24.40;99.90;;;;;;5259519;28;20019;-60
2022/07/17 06:45:05;;;;;;;0.85;0.50;;;24.80;99.90;;;;;;5259835;28;20028;-60
2022/07/17 06:47:40;;;;;;;1.25;0.90;;;24.40;99.90;;;;;;5259687;28;20036;-59
2022/07/17 06:50:12;;;;;;;0.95;0.50;;;23.70;99.90;;;;;;5241498;28;20043;-59
2022/07/17 06:52:43;;;;;;;0.60;0.60;;;23.30;99.90;;;;;;5259890;28;20316;-59
2022/07/17 06:55:17;;;;;;;0.55;0.50;;;23.00;99.90;;;;;;5258734;28;20035;-59
2022/07/17 06:57:51;;;;;;;5.22;0.85;;;22.60;99.90;;;;;;5258079;28;20023;-60
2022/07/17 07:00:22;;;;;;;1.50;0.80;;;23.10;99.90;;;;;;5258842;28;20024;-59
2022/07/17 07:03:06;;;;;;;2.53;0.70;;;23.20;99.90;;;;;;5258672;28;20020;-59
2022/07/17 07:05:42;;;;;;;1.67;0.82;;;23.30;99.90;;;;;;5226942;28;20099;-59
2022/07/17 07:08:16;;;;;;;0.60;0.60;;;23.40;99.90;;;;;;5237566;28;20020;-60
2022/07/17 07:10:48;;;;;;;1.45;0.70;;;23.00;99.90;;;;;;5259374;28;20344;-59
2022/07/17 07:13:21;;;;;;;0.88;0.60;;;23.00;99.90;;;;;;5223963;28;20036;-59
2022/07/17 07:15:58;;;;;;;1.00;0.77;;;22.40;99.90;;;;;;5259037;28;20024;-59
2022/07/17 07:18:29;;;;;;;0.60;0.60;;;23.00;99.90;;;;;;5257859;28;20028;-59
2022/07/17 07:21:00;;;;;;;0.88;0.80;;;24.40;99.90;;;;;;5254988;28;20027;-59
2022/07/17 07:23:35;;;;;;;1.25;0.50;;;24.20;99.90;;;;;;5240383;28;20036;-59
2022/07/17 07:26:09;;;;;;;0.60;0.60;;;24.30;99.90;;;;;;5241850;28;20024;-60
2022/07/17 07:28:43;;;;;;;1.10;0.68;;;24.80;99.90;;;;;;5258910;28;20031;-59
2022/07/17 07:31:29;;;;;;;2.70;0.90;;;25.40;99.90;;;;;;5241828;28;20043;-59
2022/07/17 07:34:01;;;;;;;0.60;0.60;;;25.60;99.90;;;;;;5224585;28;20036;-60
2022/07/17 07:36:34;;;;;;;2.28;0.77;;;25.70;99.90;;;;;;5259717;28;20035;-59
2022/07/17 07:39:05;;;;;;;0.57;0.57;;;26.50;99.90;;;;;;5242526;28;20031;-61
2022/07/17 07:41:39;;;;;;;1.25;0.70;;;27.20;99.90;;;;;;5230021;28;20034;-60
2022/07/17 07:44:13;;;;;;;1.20;0.70;;;26.60;99.90;;;;;;5236008;28;20029;-60
2022/07/17 07:46:46;;;;;;;0.60;0.60;;;26.60;99.90;;;;;;5242956;28;20150;-61
2022/07/17 07:49:23;;;;;;;0.60;0.60;;;26.70;99.90;;;;;;5241615;28;20028;-60
2022/07/17 07:51:55;;;;;;;1.17;0.88;;;26.80;99.90;;;;;;5241482;28;20032;-60
2022/07/17 07:54:26;;;;;;;1.85;0.80;;;27.30;99.90;;;;;;5241753;28;20040;-60
2022/07/17 07:56:59;;;;;;;0.60;0.60;;;26.60;99.90;;;;;;5258701;28;20029;-59
2022/07/17 07:59:34;;;;;;;0.67;0.60;;;26.00;99.90;;;;;;5258151;28;20315;-59
2022/07/17 08:02:08;;;;;;;3.47;0.80;;;25.20;99.90;;;;;;5258743;28;20241;-60
2022/07/17 08:04:42;;;;;;;1.95;0.57;;;25.00;99.90;;;;;;5247196;28;20051;-59
2022/07/17 08:07:16;;;;;;;0.65;0.50;;;25.50;99.90;;;;;;5239340;28;20029;-60
2022/07/17 08:09:48;;;;;;;0.93;0.57;;;25.80;99.90;;;;;;5258922;28;20324;-59
2022/07/17 08:12:20;;;;;;;0.55;0.40;;;26.20;99.90;;;;;;5247425;28;20028;-59
2022/07/17 08:14:51;;;;;;;0.80;0.60;;;27.30;99.90;;;;;;5254724;28;20205;-60
2022/07/17 08:17:27;;;;;;;1.52;0.70;;;26.50;99.90;;;;;;5232320;28;20028;-61
2022/07/17 08:20:01;;;;;;;2.00;0.63;;;26.00;99.90;;;;;;5243159;28;20037;-59
2022/07/17 08:22:36;;;;;;;0.85;0.65;;;24.60;99.90;;;;;;5233800;28;20085;-59
2022/07/17 08:25:11;;;;;;;0.90;0.50;;;24.40;99.90;;;;;;5211732;28;20025;-60
2022/07/17 08:27:43;;;;;;;2.08;0.57;;;24.30;99.90;;;;;;5233375;28;20051;-60
2022/07/17 08:30:18;;;;;;;0.70;0.70;;;25.30;99.90;;;;;;5238480;28;20032;-61
2022/07/17 08:32:54;;;;;;;0.85;0.70;;;25.30;99.90;;;;;;5242646;28;20035;-62
2022/07/17 08:35:25;;;;;;;0.80;0.70;;;25.20;99.90;;;;;;5222449;28;20295;-62
2022/07/17 08:37:57;;;;;;;0.50;0.50;;;25.30;99.90;;;;;;5239525;28;20020;-60
2022/07/17 08:40:32;;;;;;;0.77;0.77;;;26.10;99.90;;;;;;5232672;28;20016;-62
2022/07/17 08:43:08;;;;;;;0.93;0.63;;;26.80;99.90;;;;;;5241855;28;20023;-62
2022/07/17 08:45:40;;;;;;;1.17;0.60;;;27.50;99.90;;;;;;5225464;28;20016;-60
2022/07/17 08:48:21;;;;;;;0.50;0.50;;;27.90;99.90;;;;;;5251264;28;20039;-62
2022/07/17 08:50:55;;;;;;;1.23;0.85;;;28.30;99.90;;;;;;5254691;28;20040;-62
2022/07/17 08:53:26;;;;;;;4.97;0.93;;;28.50;99.90;;;;;;5207389;28;20035;-60
2022/07/17 08:55:58;;;;;;;0.60;0.60;;;28.20;99.90;;;;;;5222040;28;20025;-62
2022/07/17 08:58:32;;;;;;;0.50;0.50;;;27.80;99.90;;;;;;5221406;28;20024;-60
2022/07/17 09:01:07;;;;;;;1.95;0.73;;;27.60;99.90;;;;;;5205506;28;20028;-60
2022/07/17 09:03:52;;;;;;;1.73;0.65;;;26.10;99.90;;;;;;5239851;28;20037;-62
2022/07/17 09:06:26;;;;;;;0.50;0.50;;;26.20;99.90;;;;;;5213692;28;20059;-59
2022/07/17 09:09:14;;;;;;;0.98;0.70;;;26.80;99.90;;;;;;5217567;28;20044;-61
2022/07/17 09:11:54;;;;;;;0.57;0.50;;;27.70;99.90;;;;;;5205783;28;20040;-62
2022/07/17 09:14:38;;;;;;;2.15;0.70;;;28.60;99.90;;;;;;5216767;28;20471;-60
2022/07/17 09:17:13;;;;;;;0.73;0.70;;;27.60;99.90;;;;;;5223116;28;20084;-59
2022/07/17 09:19:52;;;;;;;0.55;0.55;;;25.90;99.90;;;;;;5217835;28;20021;-60
2022/07/17 09:22:24;;;;;;;2.22;0.77;;;26.20;99.90;;;;;;5215808;28;20016;-62
2022/07/17 09:25:01;;;;;;;0.65;0.43;;;27.60;99.90;;;;;;5216150;28;20023;-61
2022/07/17 09:27:33;;;;;;;0.60;0.60;;;28.90;99.90;;;;;;5215633;28;20013;-60
2022/07/17 09:30:11;;;;;;;0.50;0.50;;;28.90;99.90;;;;;;5204786;28;20020;-62
2022/07/17 09:32:43;;;;;;;0.95;0.80;;;29.90;99.90;;;;;;5197211;28;20051;-63
2022/07/17 09:35:17;;;;;;;1.15;0.75;;;29.80;99.90;;;;;;5199233;28;20218;-61
2022/07/17 09:37:51;;;;;;;0.80;0.57;;;29.50;99.90;;;;;;5215795;28;20024;-63
2022/07/17 09:43:13;;;;;;;1.02;0.70;;;28.00;99.90;;;;;;5213072;28;20070;-60
2022/07/17 09:45:46;;;;;;;1.23;1.00;;;28.50;99.90;;;;;;5189166;28;20025;-60
2022/07/17 09:48:20;;;;;;;0.60;0.55;;;28.60;99.90;;;;;;5201355;28;20037;-60
2022/07/17 09:50:59;;;;;;;4.20;1.10;;;28.00;99.90;;;;;;5192282;28;20059;-63
2022/07/17 09:53:34;;;;;;;1.55;0.70;;;26.70;99.90;;;;;;5211280;28;20036;-62
2022/07/17 09:56:05;;;;;;;;;;;26.20;99.90;;;;;;5212988;28;20225;-61
2022/07/17 09:58:41;;;;;;;1.27;0.90;;;26.20;99.90;;;;;;5218389;28;20116;-61
2022/07/17 10:01:15;;;;;;;0.60;0.60;;;26.80;99.90;;;;;;5196233;28;20020;-60
2022/07/17 10:03:48;;;;;;;0.80;0.80;;;28.40;99.90;;;;;;5215587;28;20023;-62
2022/07/17 10:06:24;;;;;;;1.10;0.80;;;29.70;99.90;;;;;;5171259;28;20290;-61
2022/07/17 10:08:56;;;;;;;0.50;0.50;;;28.70;99.90;;;;;;5198140;28;20031;-62
2022/07/17 10:11:30;;;;;;;1.02;0.80;;;28.90;99.90;;;;;;5222274;28;20047;-61
2022/07/17 10:14:10;;;;;;;0.63;0.60;;;29.00;99.90;;;;;;5204612;28;20051;-61
2022/07/17 10:16:41;;;;;;;1.10;0.90;;;28.30;99.90;;;;;;5229894;28;20297;-61
2022/07/17 10:19:26;;;;;;;0.60;0.60;;;28.90;99.90;;;;;;5229192;28;20016;-61
2022/07/17 10:21:58;;;;;;;;;;;29.50;99.90;;;;;;5228377;28;20029;-62
2022/07/17 10:24:30;;;;;;;0.82;0.82;;;30.20;99.90;;;;;;5225686;28;19910;-61
2022/07/17 10:27:01;;;;;;;1.10;0.60;;;30.40;99.90;;;;;;5213629;28;20185;-63
2022/07/17 10:29:39;;;;;;;2.70;0.82;;;28.80;99.90;;;;;;5187031;28;20422;-61
2022/07/17 10:32:22;;;;;;;0.80;0.80;;;27.40;99.90;;;;;;5238371;28;20020;-62
2022/07/17 10:35:04;;;;;;;2.05;1.02;;;28.40;99.90;;;;;;5198550;28;20124;-62
2022/07/17 10:37:38;;;;;;;1.10;1.00;;;28.30;99.90;;;;;;5216586;28;20025;-60
2022/07/17 10:40:19;;;;;;;1.17;1.05;;;28.40;99.90;;;;;;5213994;28;20035;-61
2022/07/17 10:43:08;;;;;;;0.88;0.88;;;27.50;99.90;;;;;;5200347;28;20040;-60
2022/07/17 10:45:44;;;;;;;0.65;0.65;;;27.00;99.90;;;;;;5199628;28;20013;-60
2022/07/17 10:48:24;;;;;;;0.63;0.63;;;26.60;99.90;;;;;;5197998;28;20021;-60
2022/07/17 10:50:58;;;;;;;2.30;0.98;;;28.10;99.90;;;;;;5163868;28;20251;-62
2022/07/17 10:53:33;;;;;;;;;;;28.70;99.90;;;;;;5209091;28;20021;-62
2022/07/17 10:56:12;;;;;;;;;;;28.40;99.90;;;;;;5219819;28;20143;-61
2022/07/17 10:58:46;;;;;;;1.63;0.70;;;29.80;99.90;;;;;;5221472;28;19915;-63
2022/07/17 11:01:24;;;;;;;0.60;0.60;;;29.40;99.90;;;;;;5214437;28;20021;-61
2022/07/17 11:03:59;;;;;;;1.40;0.80;;;28.20;99.90;;;;;;5204922;28;20215;-60
2022/07/17 11:06:38;;;;;;;0.90;0.80;;;28.50;99.90;;;;;;5206098;28;20330;-60
2022/07/17 11:09:11;;;;;;;0.65;0.55;;;29.90;99.90;;;;;;5206917;28;20232;-62
2022/07/17 11:11:45;;;;;;;1.23;0.75;;;30.60;99.90;;;;;;5212867;28;20041;-62
2022/07/17 11:14:20;;;;;;;0.68;0.68;;;31.70;99.30;;;;;;5240076;28;20024;-62
2022/07/17 11:16:52;;;;;;;0.70;0.70;;;32.80;98.60;;;;;;5232342;28;20389;-60
2022/07/17 11:19:31;;;;;;;0.85;0.85;;;31.80;98.30;;;;;;5218473;28;20020;-61
2022/07/17 11:22:10;;;;;;;0.73;0.70;;;33.00;98.60;;;;;;5235873;28;20306;-63
2022/07/17 11:24:48;;;;;;;0.98;0.88;;;33.60;98.40;;;;;;5238528;28;20017;-61
2022/07/17 11:27:38;;;;;;;1.00;0.80;;;33.50;96.70;;;;;;5216873;28;20051;-61
2022/07/17 11:30:13;;;;;;;1.10;0.80;;;32.20;97.30;;;;;;5231238;28;20138;-61
2022/07/17 11:32:44;;;;;;;1.13;0.77;;;32.00;96.90;;;;;;5234027;28;20034;-61
2022/07/17 11:35:18;;;;;;;1.00;0.68;;;31.10;97.80;;;;;;5233445;28;20221;-61
2022/07/17 11:37:52;;;;;;;0.70;0.70;;;30.70;97.70;;;;;;5236662;28;20033;-62
2022/07/17 11:40:29;;;;;;;0.80;0.80;;;29.50;98.20;;;;;;5217425;28;20021;-62
2022/07/17 11:43:01;;;;;;;0.65;0.65;;;30.80;97.60;;;;;;5238559;28;20035;-61
2022/07/17 11:45:35;;;;;;;1.02;0.80;;;31.60;96.80;;;;;;5218037;28;20028;-63
2022/07/17 11:48:11;;;;;;;0.80;0.70;;;31.90;96.50;;;;;;5205035;28;20020;-62
2022/07/17 11:50:54;;;;;;;0.70;0.70;;;31.30;97.20;;;;;;5222173;28;20038;-61
2022/07/17 11:53:52;;;;;;;0.80;0.70;;;32.20;95.90;;;;;;5223183;28;20025;-62
2022/07/17 11:56:27;;;;;;;0.75;0.70;;;31.60;95.30;;;;;;5220238;28;20344;-63
2022/07/17 11:58:59;;;;;;;0.73;0.73;;;32.10;96.00;;;;;;5217089;28;20032;-63
2022/07/17 12:01:40;;;;;;;0.75;0.70;;;30.40;96.10;;;;;;5238308;28;20020;-61
2022/07/17 12:04:13;;;;;;;0.60;0.60;;;30.80;96.00;;;;;;5195512;28;20305;-61
2022/07/17 12:06:46;;;;;;;0.80;0.80;;;29.30;96.90;;;;;;5223696;28;20034;-62
2022/07/17 12:09:28;;;;;;;0.80;0.63;;;30.00;97.00;;;;;;5222624;28;20028;-60
2022/07/17 12:12:03;;;;;;;3.33;0.80;;;29.50;96.60;;;;;;5200826;28;20314;-62
2022/07/17 12:14:49;;;;;;;0.70;0.70;;;29.80;96.40;;;;;;5222902;28;20038;-62
2022/07/17 12:17:40;;;;;;;0.60;0.60;;;29.40;95.20;;;;;;5239679;28;20051;-62
2022/07/17 12:20:11;;;;;;;0.60;0.60;;;29.50;96.10;;;;;;5207070;28;20024;-62
2022/07/17 12:22:47;;;;;;;1.88;0.77;;;30.60;95.40;;;;;;5221114;28;20032;-62
2022/07/17 12:25:25;;;;;;;0.63;0.63;;;31.40;94.40;;;;;;5240197;28;20312;-62
2022/07/17 12:27:56;;;;;;;1.15;0.60;;;31.50;95.00;;;;;;5214498;28;20017;-60
2022/07/17 12:30:28;;;;;;;0.90;0.60;;;30.00;95.40;;;;;;5236154;28;20025;-60
2022/07/17 12:32:59;;;;;;;1.17;0.70;;;29.50;94.80;;;;;;5236642;28;20023;-62
2022/07/17 12:35:31;;;;;;;0.60;0.50;;;30.10;95.60;;;;;;5239680;28;20012;-62
2022/07/17 12:38:02;;;;;;;1.30;1.00;;;29.70;94.90;;;;;;5219429;28;20045;-60
2022/07/17 12:40:36;;;;;;;1.77;0.70;;;29.80;95.30;;;;;;5220700;28;20043;-61
2022/07/17 12:43:08;;;;;;;1.37;0.80;;;29.30;96.30;;;;;;5237257;28;20316;-61
2022/07/17 12:45:39;;;;;;;1.13;0.65;;;29.60;95.60;;;;;;5241867;28;20290;-61
2022/07/17 12:48:13;;;;;;;0.70;0.70;;;30.00;95.00;;;;;;5218605;28;20318;-62
2022/07/17 12:50:47;;;;;;;;;;;29.80;95.80;;;;;;5239277;28;20027;-60
2022/07/17 12:53:21;;;;;;;0.77;0.60;;;29.50;95.20;;;;;;5198852;28;19900;-61
2022/07/17 12:55:54;;;;;;;0.70;0.70;;;29.60;95.30;;;;;;5216329;28;20028;-61
2022/07/17 12:58:29;;;;;;;1.27;0.70;;;29.70;95.30;;;;;;5213657;28;20040;-60
2022/07/17 13:01:04;;;;;;;0.55;0.43;;;29.20;95.40;;;;;;5218353;28;20013;-60
2022/07/17 13:03:37;;;;;;;2.20;1.10;;;30.60;95.20;;;;;;5222325;28;20225;-60
2022/07/17 13:06:11;;;;;;;2.05;0.60;;;29.10;94.60;;;;;;5211389;28;20033;-60
2022/07/17 13:08:42;;;;;;;1.08;0.60;;;29.50;95.40;;;;;;5206514;28;20020;-60
2022/07/17 13:11:16;;;;;;;2.30;0.98;;;30.70;94.60;;;;;;5240673;28;20032;-63
2022/07/17 13:13:50;;;;;;;0.85;0.70;;;31.20;94.00;;;;;;5229290;28;20026;-60
2022/07/17 13:16:21;;;;;;;;;;;30.30;94.40;;;;;;5257803;28;20024;-60
2022/07/17 13:18:55;;;;;;;1.05;0.60;;;31.10;93.90;;;;;;5251648;28;19900;-61
2022/07/17 13:21:26;;;;;;;1.00;0.80;;;31.30;93.40;;;;;;5253760;28;20025;-61
2022/07/17 13:24:02;;;;;;;0.80;0.80;;;30.80;93.60;;;;;;5258597;28;20031;-60
2022/07/17 13:26:33;;;;;;;1.10;0.65;;;31.90;93.70;;;;;;5258880;28;20024;-61
2022/07/17 13:29:04;;;;;;;0.50;0.50;;;32.60;92.60;;;;;;5242747;28;20034;-60
2022/07/17 13:31:38;;;;;;;1.10;0.65;;;32.40;92.80;;;;;;5256676;28;20027;-61
2022/07/17 13:34:12;;;;;;;1.95;1.00;;;31.60;93.70;;;;;;5242368;28;20025;-61
2022/07/17 13:36:43;;;;;;;0.60;0.60;;;33.00;92.50;;;;;;5242332;28;20323;-61